Main page
METAR-TAF:

METAR-TAF

Airports :

Córdoba, Argentina

Ingeniero Aeronáutico Ambrosio L.V. Taravella International Airport

latitude: 31-19S, longitude: 064-13W, elevation: 484 m

Current weather observation

The report was made 1 hour and 2 minutes ago, at 10:00 UTC
Wind 6 kt from the North/Northeast
Temperature 16°C
Humidity 55%
Pressure 1021 hPa
Visibility 10 km or more
no clouds below 1500 m and no cumulonimbus

METAR: SACO 181000Z 03006KT CAVOK 16/07 Q1021

Time: 08:02 (11:02 UTC)

Forecast

The report was made 6 hours and 2 minutes ago, at 05:00 UTC
Forecast valid from 18 at 06 UTC to 19 at 06 UTC
Wind 10 kt from the North/Northeast
Visibility 10 km or more
Scattered clouds at a height of 3000 ft
Becoming
from 18 at 12 UTC to 18 at 14 UTC
Wind 15 kt from the Northeast
Visibility 10 km or more
Scattered clouds at a height of 3000 ft

TAF: SACO 180500Z 1806/1906 02010KT 9999 SCT030 TX29/1818Z TN11/1810Z BECMG 1812/1814 05015KT 9999 SCT030

Weather observations and forecasts of more than 4000 airports (METAR and TAF reports).

The available stations are represented by yellow and red dots on the map.

Hover mouse over dot to see the name of the station.

Then click to see weather observations and forecasts.

To change the map : click on the green buttons with a black cross to zoom in, on the green button with a dash to zoom out, or on the green arrows for adjacent maps.


METAR-TAF: